This is the latest recevied weather packets stored in our database for station/object KG6QHD-13. If no packets are shown the sender has not sent any weather packets the latest 10 day(s).
| Time | Temp. | Humidity | Pressure | Rain* | Wind** | Luminosity | Snow |
|---|---|---|---|---|---|---|---|
| 1777494947 | 3.89° C | 83% | 1020.8 hPa | 1.02 mm | - | 197 W/m² | - |
| 1777494657 | 4.44° C | 84% | 1021 hPa | 0.76 mm | - | 313 W/m² | - |
| 1777493147 | 3.33° C | 87% | 1021.1 hPa | 1.52 mm | - | 144 W/m² | - |
| 1777491951 | 2.78° C | 86% | 1021.3 hPa | 1.78 mm | - | 65 W/m² | - |
| 1777489848 | 3.33° C | 83% | 1021.3 hPa | 0.76 mm | - | 40 W/m² | - |
| 1777489251 | 3.89° C | 81% | 1021.1 hPa | 0 mm | - | 44 W/m² | - |
| 1777488949 | 3.89° C | 80% | 1021.4 hPa | 0 mm | - | 25 W/m² | - |
| 1777487747 | 4.44° C | 77% | 1021.3 hPa | 0 mm | - | 25 W/m² | - |
| 1777486247 | 5° C | 74% | 1020.1 hPa | 0 mm | - | 114 W/m² | - |
| 1777485047 | 5° C | 76% | 1020.3 hPa | 0 mm | - | 329 W/m² | - |
| 1777483855 | 4.44° C | 80% | 1020.9 hPa | 0 mm | - | 374 W/m² | - |
| 1777483546 | 4.44° C | 80% | 1021 hPa | 0 mm | - | 276 W/m² | - |
| 1777481448 | 3.89° C | 82% | 1021.6 hPa | 0 mm | - | 148 W/m² | - |
| 1777481158 | 3.89° C | 83% | 1021.7 hPa | 0 mm | - | 120 W/m² | - |
| 1777480846 | 3.89° C | 84% | 1021.7 hPa | 0 mm | - | 257 W/m² | - |
| 1777480256 | 3.33° C | 84% | 1021.8 hPa | 0 mm | - | 179 W/m² | - |
| 1777479648 | 3.33° C | 85% | 1021.9 hPa | 0 mm | - | 160 W/m² | - |
| 1777479353 | 3.33° C | 85% | 1021.9 hPa | 0 mm | - | 206 W/m² | - |
| 1777479045 | 3.33° C | 85% | 1021.9 hPa | 0 mm | - | 149 W/m² | - |
| 1777478148 | 3.33° C | 84% | 1021.9 hPa | 0 mm | - | 236 W/m² | - |
| 1777473645 | 1.67° C | 91% | 1022.2 hPa | 0 mm | - | 83 W/m² | - |
| 1777473056 | 1.67° C | 91% | 1022.4 hPa | 0 mm | - | 56 W/m² | - |
| 1777471846 | 1.67° C | 91% | 1022.3 hPa | 0 mm | - | 56 W/m² | - |
| 1777471546 | 1.67° C | 91% | 1022.3 hPa | 0 mm | - | 58 W/m² | - |
| 1777471254 | 1.67° C | 91% | 1022.3 hPa | 0 mm | - | 63 W/m² | - |
* Rain latest hour (hover to see other rain measurements)
** Current wind speed in m/s (hover to see current wind gust speed)